Sodus, MI (49126)

5:38 AM EST on December 17, 2017 (GMT -0500)
MMISCD | | Change Station

Elev 537 ft 42.02 °N, 86.43 °W | Updated 222 days ago

Clear
Clear
47.0 °F
Feels Like 45 °F
N
5.0
Wind Variable Wind from NNW

Today
High -- | Low -- °F
--% Chance of Precip.
Yesterday
High -- | Low -- °F
Precip. -- in
Pressure 30.12 in
Visibility 5.0 miles
Clouds Clear
Windchill 45 °F
Dew Point 19 °F
Humidity 32%
Rainfall in
Snow Depth Not available.
8:08 AM 5:15 PM
Waning Crescent, 1% visible
METAR KBEH 170953Z AUTO 07005KT 5SM BR CLR M03/M06 A3009 RMK AO2 SLP197 T10331056 $
Pressure 30.12 in
Visibility 5.0 miles
Clouds Clear
Windchill 45 °F
Dew Point 19 °F
Humidity 32%
Rainfall in
Snow Depth Not available.
8:08 AM 5:15 PM
Waning Crescent, 1% visible
METAR KBEH 170953Z AUTO 07005KT 5SM BR CLR M03/M06 A3009 RMK AO2 SLP197 T10331056 $

Get Severe Weather Alerts

Thanks for signing up!

Be on the lookout for a verification email in your inbox.

You'll start receiving the daily forecast at 6 AM.

×

10-Day Weather Forecast

Almanac

Astronomy

Dec. 17, 2017 Rise Set
Actual Time
Civil Twilight
Nautical Twilight
Astronomical Twilight
Moon
Length of Visible Light
Length of Day
Tomorrow will be .
, % of the Moon is Illuminated

Today's Extremes

State Highs State Lows

Community

WunderPhotos

Category 6

Welcome to Category 6. This is the collective home for Weather Underground's featured writeups by Dr. Jeff Masters (right), Bob Henson (left), Chris Burt, and other regular contributors.

Nearby

Air Quality

  Air Quality AQ Index Pollutant
Not available.

Snow Depth

Station Depth Elevation

Earthquake Activity

City Distance Mag. Time & Date
Minimum magnitude displayed is 2.5.

Coastal Water Temperatures

Place Temperature

Stations

Nearby Weather Stations

Station Location Temp. Windchill Dew Point Humidity Wind Precip. Elev Updated Type
                   

Watches & Warnings

There are currently no watches in effect.